Time,TemperatureF,DewpointF,PressureIn,WindDirection,WindDirectionDegrees,WindSpeedMPH,WindSpeedGustMPH,Humidity,HourlyPrecipIn,Conditions,Clouds,dailyrainin,SoftwareType,DateUTC
2015-03-27 00:06:00,48.7,33.3,29.91,NE,45,12.0,14.0,54,0.00,,,0.00,meteohub,2015-03-26 23:06:00,
2015-03-27 00:17:00,48.6,33.1,29.91,ENE,68,6.0,12.0,55,0.00,,,0.00,meteohub,2015-03-26 23:17:00,
2015-03-27 00:27:00,47.3,33.3,29.91,ENE,68,3.0,5.0,57,0.00,,,0.00,meteohub,2015-03-26 23:27:00,
2015-03-27 00:37:00,45.1,32.5,29.91,SW,225,2.0,5.0,61,0.00,,,0.00,meteohub,2015-03-26 23:37:00,
2015-03-27 00:48:00,45.0,32.5,29.91,SSW,203,2.0,5.0,61,0.00,,,0.00,meteohub,2015-03-26 23:48:00,
2015-03-27 00:58:00,45.0,32.4,29.92,SW,225,2.0,4.0,61,0.00,,,0.00,meteohub,2015-03-26 23:58:00,
2015-03-27 01:08:00,44.1,32.2,29.91,South,180,6.0,9.0,62,0.00,,,0.00,meteohub,2015-03-27 00:08:00,
2015-03-27 01:18:00,44.2,31.8,29.91,SSW,203,5.0,6.0,61,0.00,,,0.00,meteohub,2015-03-27 00:18:00,
2015-03-27 01:29:00,43.5,31.8,29.92,SSE,158,2.0,9.0,63,0.00,,,0.00,meteohub,2015-03-27 00:29:00,
2015-03-27 01:39:00,43.3,31.3,29.92,West,270,2.0,4.0,62,0.00,,,0.00,meteohub,2015-03-27 00:39:00,
2015-03-27 01:49:00,43.5,31.3,29.93,East,90,2.0,3.0,61,0.00,,,0.00,meteohub,2015-03-27 00:49:00,
2015-03-27 02:00:00,45.3,31.1,29.93,ENE,68,10.0,14.0,57,0.00,,,0.00,meteohub,2015-03-27 01:00:00,
2015-03-27 02:10:00,46.0,30.7,29.93,ENE,68,1.0,2.0,55,0.00,,,0.00,meteohub,2015-03-27 01:10:00,
2015-03-27 02:20:00,45.7,30.2,29.93,SW,225,3.0,6.0,54,0.00,,,0.00,meteohub,2015-03-27 01:20:00,
2015-03-27 02:31:00,44.1,29.8,29.94,SSW,203,2.0,5.0,57,0.00,,,0.00,meteohub,2015-03-27 01:31:00,
2015-03-27 02:41:00,43.2,29.8,29.94,NNE,23,2.0,4.0,59,0.00,,,0.00,meteohub,2015-03-27 01:41:00,
2015-03-27 02:51:00,43.7,29.8,29.95,North,0,2.0,6.0,58,0.00,,,0.00,meteohub,2015-03-27 01:51:00,
2015-03-27 03:01:00,43.2,30.0,29.94,SSE,158,2.0,4.0,60,0.00,,,0.00,meteohub,2015-03-27 02:01:00,
2015-03-27 03:12:00,43.0,31.1,29.95,East,90,6.0,9.0,62,0.00,,,0.00,meteohub,2015-03-27 02:12:00,
2015-03-27 03:22:00,43.9,31.3,29.95,East,90,7.0,12.0,61,0.00,,,0.00,meteohub,2015-03-27 02:22:00,
2015-03-27 03:32:00,44.1,30.7,29.95,ESE,113,9.0,13.0,59,0.00,,,0.00,meteohub,2015-03-27 02:32:00,
2015-03-27 03:42:00,44.2,29.5,29.95,ENE,68,6.0,11.0,56,0.00,,,0.00,meteohub,2015-03-27 02:42:00,
2015-03-27 03:53:00,44.1,29.3,29.95,ENE,68,12.0,14.0,56,0.00,,,0.00,meteohub,2015-03-27 02:53:00,
2015-03-27 04:03:00,43.9,27.7,29.95,NE,45,5.0,21.0,52,0.00,,,0.00,meteohub,2015-03-27 03:03:00,
2015-03-27 04:14:00,44.1,27.1,29.95,NE,45,9.0,11.0,51,0.00,,,0.00,meteohub,2015-03-27 03:14:00,
2015-03-27 04:24:00,43.7,26.1,29.95,NNE,23,5.0,12.0,50,0.00,,,0.00,meteohub,2015-03-27 03:24:00,
2015-03-27 04:34:00,43.2,25.3,29.94,NW,315,3.0,10.0,49,0.00,,,0.00,meteohub,2015-03-27 03:34:00,
2015-03-27 04:45:00,43.0,26.6,29.95,West,270,0.0,2.0,52,0.00,,,0.00,meteohub,2015-03-27 03:45:00,
2015-03-27 04:55:00,40.8,25.7,29.96,South,180,4.0,7.0,55,0.00,,,0.00,meteohub,2015-03-27 03:55:00,
2015-03-27 05:05:00,39.9,27.3,29.96,West,270,1.0,7.0,60,0.00,,,0.00,meteohub,2015-03-27 04:05:00,
2015-03-27 05:16:00,39.0,26.8,29.97,East,90,4.0,5.0,61,0.00,,,0.00,meteohub,2015-03-27 04:16:00,
2015-03-27 05:26:00,40.6,26.6,29.98,ENE,68,8.0,10.0,57,0.00,,,0.00,meteohub,2015-03-27 04:26:00,
2015-03-27 05:36:00,40.3,26.2,29.97,ENE,68,4.0,10.0,56,0.00,,,0.00,meteohub,2015-03-27 04:36:00,
2015-03-27 05:47:00,41.5,23.9,29.97,NE,45,9.0,11.0,49,0.00,,,0.00,meteohub,2015-03-27 04:47:00,
2015-03-27 05:57:00,42.3,21.9,29.97,NNE,23,7.0,15.0,44,0.00,,,0.00,meteohub,2015-03-27 04:57:00,
2015-03-27 06:07:00,42.8,22.5,29.98,NNW,338,6.0,17.0,44,0.00,,,0.00,meteohub,2015-03-27 05:07:00,
2015-03-27 06:17:00,43.0,21.0,29.99,SE,135,3.0,16.0,41,0.00,,,0.00,meteohub,2015-03-27 05:17:00,
2015-03-27 06:27:00,41.5,23.7,29.99,SE,135,5.0,8.0,48,0.00,,,0.00,meteohub,2015-03-27 05:27:00,
2015-03-27 06:38:00,39.2,24.8,29.99,ENE,68,3.0,6.0,56,0.00,,,0.00,meteohub,2015-03-27 05:38:00,
2015-03-27 06:48:00,38.5,24.6,29.99,ENE,68,2.0,8.0,57,0.00,,,0.00,meteohub,2015-03-27 05:48:00,
2015-03-27 06:58:00,36.9,24.6,29.99,NE,45,1.0,4.0,61,0.00,,,0.00,meteohub,2015-03-27 05:58:00,
2015-03-27 07:09:00,36.5,25.2,29.99,NW,315,1.0,4.0,63,0.00,,,0.00,meteohub,2015-03-27 06:09:00,
2015-03-27 07:19:00,36.3,25.0,29.99,East,90,3.0,6.0,63,0.00,,,0.00,meteohub,2015-03-27 06:19:00,
2015-03-27 07:29:00,35.8,24.8,30.00,West,270,1.0,5.0,64,0.00,,,0.00,meteohub,2015-03-27 06:29:00,
2015-03-27 07:39:00,35.4,25.2,30.00,ESE,113,0.0,5.0,65,0.00,,,0.00,meteohub,2015-03-27 06:39:00,
2015-03-27 07:50:00,35.4,25.5,30.01,WSW,248,1.0,6.0,67,0.00,,,0.00,meteohub,2015-03-27 06:50:00,
2015-03-27 08:01:00,35.8,25.9,30.01,East,90,1.0,8.0,67,0.00,,,0.00,meteohub,2015-03-27 07:01:00,
2015-03-27 08:11:00,36.3,26.1,30.01,WSW,248,3.0,7.0,66,0.00,,,0.00,meteohub,2015-03-27 07:11:00,
2015-03-27 08:21:00,37.0,26.4,30.02,WSW,248,1.0,6.0,65,0.00,,,0.00,meteohub,2015-03-27 07:21:00,
2015-03-27 08:32:00,37.2,26.6,30.02,SE,135,2.0,5.0,65,0.00,,,0.00,meteohub,2015-03-27 07:32:00,
2015-03-27 08:42:00,37.6,27.1,30.02,SSW,203,3.0,5.0,65,0.00,,,0.00,meteohub,2015-03-27 07:42:00,
2015-03-27 08:52:00,37.8,27.5,30.03,ENE,68,1.0,7.0,65,0.00,,,0.00,meteohub,2015-03-27 07:52:00,
2015-03-27 09:02:00,37.8,27.9,30.03,NE,45,0.0,7.0,67,0.00,,,0.00,meteohub,2015-03-27 08:02:00,
2015-03-27 09:12:00,38.3,27.3,30.03,ENE,68,6.0,7.0,64,0.00,,,0.00,meteohub,2015-03-27 08:12:00,
2015-03-27 09:23:00,39.7,27.9,30.03,NNE,23,2.0,7.0,62,0.00,,,0.00,meteohub,2015-03-27 08:23:00,
2015-03-27 09:33:00,40.5,27.1,30.04,West,270,2.0,5.0,58,0.00,,,0.00,meteohub,2015-03-27 08:33:00,
2015-03-27 09:43:00,44.2,22.5,30.03,SSE,158,2.0,11.0,42,0.00,,,0.00,meteohub,2015-03-27 08:43:00,
2015-03-27 09:53:00,47.1,24.6,30.04,ENE,68,8.0,11.0,41,0.00,,,0.00,meteohub,2015-03-27 08:53:00,
2015-03-27 10:04:00,48.7,20.1,30.04,West,270,5.0,10.0,32,0.00,,,0.00,meteohub,2015-03-27 09:04:00,
2015-03-27 10:14:00,50.4,21.4,30.04,NW,315,1.0,7.0,32,0.00,,,0.00,meteohub,2015-03-27 09:14:00,
2015-03-27 10:24:00,53.1,5.0,30.05,NW,315,12.0,20.0,14,0.00,,,0.00,meteohub,2015-03-27 09:24:00,
2015-03-27 10:35:00,53.8,0.5,30.05,NW,315,15.0,21.0,11,0.00,,,0.00,meteohub,2015-03-27 09:35:00,
2015-03-27 10:45:00,54.0,4.3,30.05,NNW,338,10.0,23.0,13,0.00,,,0.00,meteohub,2015-03-27 09:45:00,
2015-03-27 10:55:00,54.0,4.3,30.05,NW,315,17.0,24.0,13,0.00,,,0.00,meteohub,2015-03-27 09:55:00,
2015-03-27 11:06:00,54.0,2.5,30.06,NW,315,14.0,24.0,12,0.00,,,0.00,meteohub,2015-03-27 10:06:00,
2015-03-27 11:16:00,54.1,5.0,30.06,NW,315,9.0,23.0,13,0.00,,,0.00,meteohub,2015-03-27 10:16:00,
2015-03-27 11:26:00,54.5,5.4,30.07,NW,315,14.0,18.0,13,0.00,,,0.00,meteohub,2015-03-27 10:26:00,
2015-03-27 11:37:00,54.5,2.8,30.07,NW,315,14.0,19.0,12,0.00,,,0.00,meteohub,2015-03-27 10:37:00,
2015-03-27 11:47:00,54.1,0.7,30.07,NW,315,13.0,24.0,11,0.00,,,0.00,meteohub,2015-03-27 10:47:00,
2015-03-27 11:57:00,54.5,2.8,30.07,NNW,338,11.0,21.0,12,0.00,,,0.00,meteohub,2015-03-27 10:57:00,
2015-03-27 12:07:00,54.7,3.0,30.07,NW,315,13.0,19.0,12,0.00,,,0.00,meteohub,2015-03-27 11:07:00,
2015-03-27 12:17:00,54.9,2.7,30.06,WNW,293,13.0,23.0,11,0.00,,,0.00,meteohub,2015-03-27 11:17:00,
2015-03-27 12:28:00,55.2,1.6,30.06,NW,315,17.0,23.0,11,0.00,,,0.00,meteohub,2015-03-27 11:28:00,
2015-03-27 12:38:00,54.9,3.2,30.06,NW,315,9.0,23.0,12,0.00,,,0.00,meteohub,2015-03-27 11:38:00,
2015-03-27 12:48:00,55.8,1.9,30.07,NW,315,15.0,23.0,11,0.00,,,0.00,meteohub,2015-03-27 11:48:00,
2015-03-27 12:59:00,55.8,5.5,30.07,NW,315,12.0,20.0,13,0.00,,,0.00,meteohub,2015-03-27 11:59:00,
2015-03-27 13:09:00,55.6,5.5,30.07,NW,315,13.0,19.0,13,0.00,,,0.00,meteohub,2015-03-27 12:09:00,
2015-03-27 13:20:00,55.6,3.7,30.07,NW,315,10.0,15.0,12,0.00,,,0.00,meteohub,2015-03-27 12:20:00,
2015-03-27 13:30:00,56.3,4.3,30.07,NW,315,7.0,11.0,12,0.00,,,0.00,meteohub,2015-03-27 12:30:00,
2015-03-27 13:41:00,55.9,4.1,30.07,NNW,338,12.0,19.0,12,0.00,,,0.00,meteohub,2015-03-27 12:41:00,
2015-03-27 13:51:00,55.2,5.2,30.09,NW,315,15.0,26.0,13,0.00,,,0.00,meteohub,2015-03-27 12:51:00,
2015-03-27 14:02:00,55.2,5.0,30.09,WNW,293,14.0,26.0,13,0.00,,,0.00,meteohub,2015-03-27 13:02:00,
2015-03-27 14:12:00,55.4,9.9,30.09,NW,315,11.0,22.0,16,0.00,,,0.00,meteohub,2015-03-27 13:12:00,
2015-03-27 14:22:00,55.6,7.2,30.10,NNE,23,10.0,23.0,14,0.00,,,0.00,meteohub,2015-03-27 13:22:00,
2015-03-27 14:33:00,55.2,6.8,30.10,NW,315,7.0,16.0,14,0.00,,,0.00,meteohub,2015-03-27 13:33:00,
2015-03-27 14:43:00,55.2,6.8,30.09,West,270,7.0,15.0,14,0.00,,,0.00,meteohub,2015-03-27 13:43:00,
2015-03-27 14:53:00,55.9,8.8,30.08,WNW,293,9.0,24.0,15,0.00,,,0.00,meteohub,2015-03-27 13:53:00,
2015-03-27 15:04:00,55.8,5.5,30.07,NW,315,9.0,17.0,13,0.00,,,0.00,meteohub,2015-03-27 14:04:00,
2015-03-27 15:14:00,56.3,2.3,30.07,NNW,338,11.0,17.0,11,0.00,,,0.00,meteohub,2015-03-27 14:14:00,
2015-03-27 15:24:00,55.9,6.4,30.08,NNW,338,12.0,22.0,13,0.00,,,0.00,meteohub,2015-03-27 14:24:00,
2015-03-27 15:35:00,55.6,6.1,30.08,NW,315,14.0,25.0,13,0.00,,,0.00,meteohub,2015-03-27 14:35:00,
2015-03-27 15:45:00,55.8,7.2,30.09,North,0,14.0,21.0,14,0.00,,,0.00,meteohub,2015-03-27 14:45:00,
2015-03-27 15:55:00,55.6,10.8,30.09,NNE,23,8.0,17.0,16,0.00,,,0.00,meteohub,2015-03-27 14:55:00,
2015-03-27 16:06:00,55.8,7.2,30.09,NE,45,8.0,21.0,14,0.00,,,0.00,meteohub,2015-03-27 15:06:00,
2015-03-27 16:16:00,55.0,9.7,30.09,NE,45,9.0,20.0,16,0.00,,,0.00,meteohub,2015-03-27 15:16:00,
2015-03-27 16:27:00,54.3,2.7,30.09,NNW,338,14.0,22.0,12,0.00,,,0.00,meteohub,2015-03-27 15:27:00,
2015-03-27 16:37:00,54.1,10.2,30.09,NNE,23,10.0,19.0,17,0.00,,,0.00,meteohub,2015-03-27 15:37:00,
2015-03-27 16:47:00,53.4,10.8,30.09,NE,45,8.0,19.0,18,0.00,,,0.00,meteohub,2015-03-27 15:47:00,
2015-03-27 16:57:00,53.1,7.3,30.09,NE,45,13.0,19.0,15,0.00,,,0.00,meteohub,2015-03-27 15:57:00,
2015-03-27 17:08:00,52.9,9.3,30.09,NE,45,11.0,18.0,17,0.00,,,0.00,meteohub,2015-03-27 16:08:00,
2015-03-27 17:18:00,52.5,11.5,30.10,NE,45,9.0,19.0,19,0.00,,,0.00,meteohub,2015-03-27 16:18:00,
2015-03-27 17:29:00,52.2,11.7,30.10,NE,45,10.0,18.0,19,0.00,,,0.00,meteohub,2015-03-27 16:29:00,
2015-03-27 17:39:00,52.0,11.5,30.10,NE,45,9.0,21.0,19,0.00,,,0.00,meteohub,2015-03-27 16:39:00,
2015-03-27 17:49:00,51.6,10.0,30.11,NE,45,8.0,18.0,18,0.00,,,0.00,meteohub,2015-03-27 16:49:00,
2015-03-27 18:00:00,51.6,11.3,30.11,NE,45,10.0,15.0,19,0.00,,,0.00,meteohub,2015-03-27 17:00:00,
2015-03-27 18:10:00,51.4,9.3,30.11,NE,45,9.0,19.0,18,0.00,,,0.00,meteohub,2015-03-27 17:10:00,
2015-03-27 18:21:00,51.4,9.9,30.11,ENE,68,13.0,23.0,18,0.00,,,0.00,meteohub,2015-03-27 17:21:00,
2015-03-27 18:31:00,51.3,10.4,30.12,North,0,10.0,16.0,19,0.00,,,0.00,meteohub,2015-03-27 17:31:00,
2015-03-27 18:41:00,50.5,16.5,30.11,NNE,23,10.0,17.0,25,0.00,,,0.00,meteohub,2015-03-27 17:41:00,
2015-03-27 18:52:00,50.2,27.0,30.12,NNW,338,14.0,23.0,40,0.00,,,0.00,meteohub,2015-03-27 17:52:00,
2015-03-27 19:02:00,50.0,30.0,30.12,NW,315,13.0,23.0,46,0.00,,,0.00,meteohub,2015-03-27 18:02:00,
2015-03-27 19:12:00,49.3,32.0,30.11,WNW,293,14.0,24.0,51,0.00,,,0.00,meteohub,2015-03-27 18:12:00,
2015-03-27 19:23:00,48.7,32.9,30.11,NW,315,13.0,22.0,54,0.00,,,0.00,meteohub,2015-03-27 18:23:00,
2015-03-27 19:33:00,49.1,33.6,30.11,NW,315,11.0,20.0,55,0.00,,,0.00,meteohub,2015-03-27 18:33:00,
2015-03-27 19:44:00,49.3,34.0,30.11,NNW,338,8.0,16.0,55,0.00,,,0.00,meteohub,2015-03-27 18:44:00,
2015-03-27 19:54:00,49.5,34.0,30.11,NW,315,6.0,15.0,55,0.00,,,0.00,meteohub,2015-03-27 18:54:00,
2015-03-27 20:05:00,49.6,32.4,30.11,NNE,23,4.0,8.0,51,0.00,,,0.00,meteohub,2015-03-27 19:05:00,
2015-03-27 20:15:00,49.8,34.7,30.12,NW,315,5.0,14.0,56,0.00,,,0.00,meteohub,2015-03-27 19:15:00,
2015-03-27 20:26:00,49.8,35.2,30.12,NW,315,8.0,13.0,57,0.00,,,0.00,meteohub,2015-03-27 19:26:00,
2015-03-27 20:36:00,50.0,35.4,30.11,NW,315,8.0,14.0,57,0.00,,,0.00,meteohub,2015-03-27 19:36:00,
2015-03-27 20:46:00,49.8,35.6,30.11,NW,315,3.0,11.0,58,0.00,,,0.00,meteohub,2015-03-27 19:46:00,
2015-03-27 20:57:00,50.2,36.3,30.12,NW,315,10.0,17.0,59,0.00,,,0.00,meteohub,2015-03-27 19:57:00,
2015-03-27 21:07:00,50.9,36.1,30.10,West,270,14.0,21.0,57,0.00,,,0.00,meteohub,2015-03-27 20:07:00,
2015-03-27 21:18:00,50.9,36.0,30.10,West,270,13.0,17.0,56,0.00,,,0.00,meteohub,2015-03-27 20:18:00,
2015-03-27 21:28:00,50.9,36.1,30.10,WSW,248,3.0,10.0,57,0.00,,,0.00,meteohub,2015-03-27 20:28:00,
2015-03-27 21:38:00,50.0,36.5,30.10,SSW,203,2.0,3.0,59,0.00,,,0.00,meteohub,2015-03-27 20:38:00,
2015-03-27 21:48:00,49.3,36.3,30.11,ENE,68,1.0,3.0,61,0.00,,,0.00,meteohub,2015-03-27 20:48:00,
2015-03-27 21:59:00,48.9,37.6,30.11,South,180,4.0,8.0,64,0.00,,,0.00,meteohub,2015-03-27 20:59:00,
2015-03-27 22:09:00,48.7,38.1,30.11,SSW,203,0.0,3.0,66,0.00,,,0.00,meteohub,2015-03-27 21:09:00,
2015-03-27 22:19:00,47.8,39.0,30.12,East,90,2.0,8.0,71,0.00,,,0.00,meteohub,2015-03-27 21:19:00,
2015-03-27 22:30:00,47.5,39.0,30.11,SSW,203,3.0,4.0,72,0.00,,,0.00,meteohub,2015-03-27 21:30:00,
2015-03-27 22:40:00,47.1,39.6,30.11,SW,225,4.0,6.0,75,0.01,,,0.01,meteohub,2015-03-27 21:40:00,
2015-03-27 22:51:00,46.8,39.9,30.11,SSW,203,5.0,7.0,77,0.01,,,0.01,meteohub,2015-03-27 21:51:00,
2015-03-27 23:01:00,46.8,39.6,30.11,SSW,203,6.0,7.0,76,0.02,,,0.02,meteohub,2015-03-27 22:01:00,
2015-03-27 23:11:00,46.4,40.5,30.11,SSW,203,3.0,6.0,79,0.02,,,0.02,meteohub,2015-03-27 22:11:00,
2015-03-27 23:22:00,46.2,40.8,30.11,SSE,158,0.0,1.0,81,0.03,,,0.03,meteohub,2015-03-27 22:22:00,
2015-03-27 23:32:00,46.0,40.8,30.10,South,180,5.0,7.0,82,0.04,,,0.05,meteohub,2015-03-27 22:32:00,
2015-03-27 23:42:00,45.9,41.4,30.10,SW,225,4.0,8.0,84,0.05,,,0.06,meteohub,2015-03-27 22:42:00,